createdAt,value
2022-09-01T00:00:14.705Z,24.96
2022-09-01T00:00:46.917Z,24.95
2022-09-01T00:01:18.938Z,24.92
2022-09-01T00:01:50.976Z,24.90
2022-09-01T00:02:22.744Z,24.91
2022-09-01T00:02:57.291Z,24.92
2022-09-01T00:03:29.137Z,24.94
2022-09-01T00:04:02.073Z,24.94
2022-09-01T00:04:33.815Z,24.93
2022-09-01T00:05:05.720Z,24.94
2022-09-01T00:05:37.383Z,24.95
2022-09-01T00:06:09.155Z,24.95
2022-09-01T00:06:41.446Z,24.93
2022-09-01T00:07:13.398Z,24.93
2022-09-01T00:07:45.125Z,24.93
2022-09-01T00:08:18.665Z,24.91
2022-09-01T00:08:51.237Z,24.92
2022-09-01T00:09:22.871Z,24.93
2022-09-01T00:09:54.907Z,24.92
2022-09-01T00:10:26.568Z,24.92
2022-09-01T00:10:58.629Z,24.95
2022-09-01T00:11:30.822Z,24.93
2022-09-01T00:12:02.530Z,24.92
2022-09-01T00:12:34.322Z,24.92
2022-09-01T00:13:06.007Z,24.90
2022-09-01T00:13:38.224Z,24.91
2022-09-01T00:14:24.067Z,24.91
2022-09-01T00:15:01.567Z,24.92
2022-09-01T00:15:34.353Z,24.90
2022-09-01T00:16:06.432Z,24.88
2022-09-01T00:16:38.378Z,24.88
2022-09-01T00:17:10.413Z,24.90
2022-09-01T00:17:42.056Z,24.88
2022-09-01T00:18:13.934Z,24.86
2022-09-01T00:18:46.415Z,24.89
2022-09-01T00:19:18.192Z,24.85
2022-09-01T00:19:49.919Z,24.86
2022-09-01T00:20:21.568Z,24.87
2022-09-01T00:20:53.678Z,24.87
2022-09-01T00:21:27.191Z,24.83
2022-09-01T00:21:59.226Z,24.88
2022-09-01T00:22:31.301Z,24.85
2022-09-01T00:23:03.317Z,24.83
2022-09-01T00:23:35.009Z,24.83
2022-09-01T00:24:06.766Z,24.82
2022-09-01T00:24:38.382Z,24.85
2022-09-01T00:25:10.439Z,24.84
2022-09-01T00:25:42.210Z,24.83
2022-09-01T00:26:14.318Z,24.82
2022-09-01T00:26:45.951Z,24.81
2022-09-01T00:27:17.953Z,24.82
2022-09-01T00:27:51.326Z,24.82
2022-09-01T00:28:22.945Z,24.81
2022-09-01T00:29:00.925Z,24.82
2022-09-01T00:29:32.900Z,24.81
2022-09-01T00:30:04.597Z,24.77
2022-09-01T00:30:36.713Z,24.79
2022-09-01T00:31:08.447Z,24.77
2022-09-01T00:31:40.085Z,24.76
2022-09-01T00:32:11.885Z,24.80
2022-09-01T00:32:43.572Z,24.78
2022-09-01T00:33:15.177Z,24.77
2022-09-01T00:33:47.145Z,24.80
2022-09-01T00:34:19.113Z,24.76
2022-09-01T00:34:50.748Z,24.76
2022-09-01T00:35:22.665Z,24.75
2022-09-01T00:35:54.338Z,24.74
2022-09-01T00:36:25.980Z,24.77
2022-09-01T00:36:57.631Z,24.79
2022-09-01T00:37:29.357Z,24.75
2022-09-01T00:38:01.063Z,24.80
2022-09-01T00:38:33.063Z,24.80
2022-09-01T00:39:05.091Z,24.80
2022-09-01T00:39:36.704Z,24.80
2022-09-01T00:40:08.684Z,24.81
2022-09-01T00:40:40.718Z,24.78
2022-09-01T00:41:12.813Z,24.79
2022-09-01T00:41:44.447Z,24.79
2022-09-01T00:42:16.291Z,24.79
2022-09-01T00:42:48.184Z,24.81
2022-09-01T00:43:36.469Z,24.76
2022-09-01T00:44:09.014Z,24.79
2022-09-01T00:44:40.783Z,24.75
2022-09-01T00:45:12.669Z,24.76
2022-09-01T00:45:44.635Z,24.74
2022-09-01T00:46:20.865Z,24.75
2022-09-01T00:46:55.184Z,24.76
2022-09-01T00:47:28.478Z,24.75
2022-09-01T00:48:00.484Z,24.74
2022-09-01T00:48:33.276Z,24.75
2022-09-01T00:49:04.849Z,24.74
2022-09-01T00:49:41.098Z,24.74
2022-09-01T00:50:12.712Z,24.75
2022-09-01T00:50:44.790Z,24.75
2022-09-01T00:51:21.125Z,24.76
2022-09-01T00:51:54.785Z,24.74
2022-09-01T00:52:36.403Z,24.72
2022-09-01T00:53:08.131Z,24.73
2022-09-01T00:53:40.241Z,24.74
2022-09-01T00:54:12.923Z,24.72
2022-09-01T00:54:45.692Z,24.73
2022-09-01T00:55:27.266Z,24.75
2022-09-01T00:55:59.179Z,24.75
2022-09-01T00:56:30.791Z,24.73
2022-09-01T00:57:02.945Z,24.72
2022-09-01T00:57:34.639Z,24.72
2022-09-01T00:58:06.684Z,24.74
2022-09-01T00:58:51.425Z,24.75
2022-09-01T00:59:23.406Z,24.75
2022-09-01T00:59:56.826Z,24.75
2022-09-01T01:00:29.142Z,24.69
2022-09-01T01:01:00.807Z,24.70
2022-09-01T01:01:32.616Z,24.70
2022-09-01T01:02:04.369Z,24.69
2022-09-01T01:02:36.209Z,24.67
2022-09-01T01:03:08.850Z,24.70
2022-09-01T01:03:40.511Z,24.66
2022-09-01T01:04:12.303Z,24.66
2022-09-01T01:04:43.942Z,24.64
2022-09-01T01:05:15.783Z,24.69
2022-09-01T01:05:51.563Z,24.68
2022-09-01T01:06:23.986Z,24.66
2022-09-01T01:06:56.386Z,24.71
2022-09-01T01:07:28.049Z,24.72
2022-09-01T01:08:00.558Z,24.66
2022-09-01T01:08:32.981Z,24.66
2022-09-01T01:09:04.777Z,24.64
2022-09-01T01:09:38.829Z,24.66
2022-09-01T01:10:11.137Z,24.66
2022-09-01T01:10:43.160Z,24.67
2022-09-01T01:11:15.392Z,24.70
2022-09-01T01:11:47.926Z,24.67
2022-09-01T01:12:19.782Z,24.65
2022-09-01T01:12:51.860Z,24.67
2022-09-01T01:13:23.755Z,24.69
2022-09-01T01:13:56.639Z,24.70
2022-09-01T01:14:28.255Z,24.71
2022-09-01T01:15:00.669Z,24.70
2022-09-01T01:15:32.546Z,24.69
2022-09-01T01:16:05.191Z,24.65
2022-09-01T01:16:36.995Z,24.70
2022-09-01T01:17:08.720Z,24.67
2022-09-01T01:17:40.796Z,24.63
2022-09-01T01:18:15.046Z,24.61
2022-09-01T01:18:50.860Z,24.66
2022-09-01T01:19:39.078Z,24.62
2022-09-01T01:20:11.659Z,24.65
2022-09-01T01:20:43.268Z,24.66
2022-09-01T01:21:28.302Z,24.65
2022-09-01T01:22:00.030Z,24.63
2022-09-01T01:22:31.870Z,24.63
2022-09-01T01:23:06.452Z,24.63
2022-09-01T01:23:41.869Z,24.60
2022-09-01T01:24:29.726Z,24.61
2022-09-01T01:25:01.451Z,24.61
2022-09-01T01:25:43.218Z,24.63
2022-09-01T01:26:15.083Z,24.62
2022-09-01T01:26:46.781Z,24.59
2022-09-01T01:27:18.456Z,24.58
2022-09-01T01:27:50.165Z,24.60
2022-09-01T01:28:28.567Z,24.62
2022-09-01T01:29:00.244Z,24.58
2022-09-01T01:29:32.987Z,24.54
2022-09-01T01:30:04.893Z,24.56
2022-09-01T01:30:42.246Z,24.59
2022-09-01T01:31:14.828Z,24.61
2022-09-01T01:31:46.786Z,24.59
2022-09-01T01:32:18.389Z,24.57
2022-09-01T01:32:50.202Z,24.58
2022-09-01T01:33:22.574Z,24.63
2022-09-01T01:33:56.199Z,24.61
2022-09-01T01:34:27.823Z,24.62
2022-09-01T01:34:59.451Z,24.65
2022-09-01T01:35:31.488Z,24.61
2022-09-01T01:36:03.198Z,24.59
2022-09-01T01:36:35.723Z,24.61
2022-09-01T01:37:07.344Z,24.59
2022-09-01T01:37:38.981Z,24.56
2022-09-01T01:38:10.695Z,24.55
2022-09-01T01:38:43.943Z,24.54
2022-09-01T01:39:17.323Z,24.56
2022-09-01T01:39:49.014Z,24.60
2022-09-01T01:40:20.827Z,24.59
2022-09-01T01:40:52.547Z,24.58
2022-09-01T01:41:24.834Z,24.61
2022-09-01T01:41:57.119Z,24.55
2022-09-01T01:42:29.110Z,24.56
2022-09-01T01:43:01.478Z,24.51
2022-09-01T01:43:33.200Z,24.55
2022-09-01T01:44:04.837Z,24.56
2022-09-01T01:44:37.095Z,24.58
2022-09-01T01:45:08.974Z,24.55
2022-09-01T01:45:40.951Z,24.55
2022-09-01T01:46:12.587Z,24.57
2022-09-01T01:46:45.249Z,24.56
2022-09-01T01:47:17.299Z,24.56
2022-09-01T01:47:49.308Z,24.56
2022-09-01T01:48:21.649Z,24.57
2022-09-01T01:48:53.371Z,24.57
2022-09-01T01:49:25.484Z,24.57
2022-09-01T01:49:57.426Z,24.55
2022-09-01T01:50:30.306Z,24.57
2022-09-01T01:51:01.965Z,24.56
2022-09-01T01:51:33.783Z,24.57
2022-09-01T01:52:06.236Z,24.59
2022-09-01T01:52:40.006Z,24.48
2022-09-01T01:53:17.555Z,24.54
2022-09-01T01:53:50.310Z,24.53
2022-09-01T01:54:22.846Z,24.53
2022-09-01T01:54:54.895Z,24.53
2022-09-01T01:55:26.553Z,24.55
2022-09-01T01:55:58.199Z,24.52
2022-09-01T01:56:30.299Z,24.53
2022-09-01T01:57:01.893Z,24.48
2022-09-01T01:57:33.576Z,24.48
2022-09-01T01:58:05.250Z,24.49
2022-09-01T01:58:37.096Z,24.44
2022-09-01T01:59:09.240Z,24.46
2022-09-01T01:59:40.975Z,24.45
2022-09-01T02:00:13.014Z,24.51
2022-09-01T02:00:44.913Z,24.52
2022-09-01T02:01:16.841Z,24.50
2022-09-01T02:01:48.689Z,24.50
2022-09-01T02:02:20.780Z,24.51
2022-09-01T02:02:52.814Z,24.49
2022-09-01T02:03:26.731Z,24.51
2022-09-01T02:03:59.199Z,24.51
2022-09-01T02:04:32.113Z,24.53
2022-09-01T02:05:04.008Z,24.50
2022-09-01T02:05:36.147Z,24.48
2022-09-01T02:06:08.143Z,24.44
2022-09-01T02:06:39.814Z,24.44
2022-09-01T02:07:11.975Z,24.46
2022-09-01T02:07:43.580Z,24.50
2022-09-01T02:08:15.656Z,24.53
2022-09-01T02:08:49.065Z,24.53
2022-09-01T02:09:21.172Z,24.52
2022-09-01T02:09:52.918Z,24.50
2022-09-01T02:10:26.873Z,24.51
2022-09-01T02:10:59.312Z,24.51
2022-09-01T02:11:30.994Z,24.53
2022-09-01T02:12:02.653Z,24.47
2022-09-01T02:12:34.283Z,24.50
2022-09-01T02:13:05.936Z,24.48
2022-09-01T02:13:37.631Z,24.49
2022-09-01T02:14:09.371Z,24.46
2022-09-01T02:14:41.396Z,24.49
2022-09-01T02:15:13.167Z,24.49
2022-09-01T02:15:47.836Z,24.47
2022-09-01T02:16:19.521Z,24.49
2022-09-01T02:16:51.226Z,24.48
2022-09-01T02:17:23.388Z,24.42
2022-09-01T02:17:55.032Z,24.41
2022-09-01T02:18:27.896Z,24.42
2022-09-01T02:18:59.693Z,24.44
2022-09-01T02:19:31.317Z,24.46
2022-09-01T02:20:03.230Z,24.50
2022-09-01T02:20:34.848Z,24.44
2022-09-01T02:21:06.996Z,24.46
2022-09-01T02:21:38.717Z,24.49
2022-09-01T02:22:10.486Z,24.44
2022-09-01T02:22:42.225Z,24.45
2022-09-01T02:23:13.844Z,24.41
2022-09-01T02:23:45.993Z,24.44
2022-09-01T02:24:18.432Z,24.41
2022-09-01T02:24:50.274Z,24.45
2022-09-01T02:25:22.707Z,24.47
2022-09-01T02:26:47.901Z,24.47
2022-09-01T02:27:19.856Z,24.49
2022-09-01T02:27:51.954Z,24.48
2022-09-01T02:28:23.806Z,24.46
2022-09-01T02:28:56.237Z,24.46
2022-09-01T02:29:28.919Z,24.47
2022-09-01T02:30:00.679Z,24.49
2022-09-01T02:30:32.442Z,24.47
2022-09-01T02:31:04.477Z,24.46
2022-09-01T02:31:36.477Z,24.46
2022-09-01T02:32:08.551Z,24.47
2022-09-01T02:32:40.469Z,24.45
2022-09-01T02:33:12.718Z,24.47
2022-09-01T02:33:44.527Z,24.48
2022-09-01T02:34:16.875Z,24.47
2022-09-01T02:34:51.696Z,24.45
2022-09-01T02:35:23.308Z,24.48
2022-09-01T02:35:56.113Z,24.46
2022-09-01T02:36:28.082Z,24.48
2022-09-01T02:36:59.825Z,24.45
2022-09-01T02:37:31.447Z,24.48
2022-09-01T02:38:03.181Z,24.49
2022-09-01T02:38:34.936Z,24.50
2022-09-01T02:39:06.579Z,24.52
2022-09-01T02:39:39.829Z,24.50
2022-09-01T02:40:11.514Z,24.51
2022-09-01T02:40:43.541Z,24.48
2022-09-01T02:41:15.275Z,24.45
2022-09-01T02:41:47.721Z,24.47
2022-09-01T02:42:19.985Z,24.49
2022-09-01T02:42:51.730Z,24.45
2022-09-01T02:43:23.378Z,24.48
2022-09-01T02:43:55.041Z,24.48
2022-09-01T02:44:26.729Z,24.47
2022-09-01T02:44:58.419Z,24.48
2022-09-01T02:45:30.245Z,24.47
2022-09-01T02:46:02.075Z,24.46
2022-09-01T02:46:34.064Z,24.41
2022-09-01T02:47:06.447Z,24.39
2022-09-01T02:47:38.246Z,24.42
2022-09-01T02:48:10.500Z,24.45
2022-09-01T02:48:43.152Z,24.46
2022-09-01T02:49:16.178Z,24.45
2022-09-01T02:49:47.903Z,24.41
2022-09-01T02:50:19.931Z,24.42
2022-09-01T02:50:51.705Z,24.38
2022-09-01T02:51:24.327Z,24.39
2022-09-01T02:51:56.441Z,24.40
2022-09-01T02:52:28.449Z,24.41
2022-09-01T02:53:03.824Z,24.43
2022-09-01T02:53:35.805Z,24.41
2022-09-01T02:54:07.476Z,24.41
2022-09-01T02:54:39.134Z,24.42
2022-09-01T02:55:10.764Z,24.41
2022-09-01T02:55:42.515Z,24.44
2022-09-01T02:56:14.192Z,24.41
2022-09-01T02:56:46.735Z,24.41
2022-09-01T02:57:18.404Z,24.40
2022-09-01T02:57:50.599Z,24.43
2022-09-01T02:58:24.804Z,24.42
2022-09-01T02:58:57.302Z,24.43
2022-09-01T02:59:29.023Z,24.43
2022-09-01T03:00:00.734Z,24.45
2022-09-01T03:00:32.375Z,24.44
2022-09-01T03:01:04.475Z,24.45
2022-09-01T03:01:36.247Z,24.42
2022-09-01T03:02:07.859Z,24.44
2022-09-01T03:02:39.544Z,24.44
2022-09-01T03:03:11.232Z,24.46
2022-09-01T03:03:42.863Z,24.43
2022-09-01T03:04:14.520Z,24.44
2022-09-01T03:04:46.421Z,24.39
2022-09-01T03:05:18.771Z,24.39
2022-09-01T03:05:53.578Z,24.41
2022-09-01T03:06:25.210Z,24.42
2022-09-01T03:06:56.797Z,24.41
2022-09-01T03:07:28.444Z,24.42
2022-09-01T03:08:01.167Z,24.42
2022-09-01T03:08:32.832Z,24.43
2022-09-01T03:09:22.213Z,24.43
2022-09-01T03:09:53.906Z,24.41
2022-09-01T03:10:29.101Z,24.41
2022-09-01T03:11:01.419Z,24.42
2022-09-01T03:11:33.195Z,24.40
2022-09-01T03:12:05.093Z,24.40
2022-09-01T03:12:36.734Z,24.41
2022-09-01T03:13:09.997Z,24.42
2022-09-01T03:13:42.122Z,24.37
2022-09-01T03:14:13.961Z,24.39
2022-09-01T03:14:45.911Z,24.36
2022-09-01T03:15:18.475Z,24.38
2022-09-01T03:15:50.138Z,24.40
2022-09-01T03:16:22.203Z,24.39
2022-09-01T03:16:53.967Z,24.41
2022-09-01T03:17:25.631Z,24.39
2022-09-01T03:17:57.324Z,24.41
2022-09-01T03:18:29.070Z,24.41
2022-09-01T03:19:01.097Z,24.34
2022-09-01T03:19:32.724Z,24.33
2022-09-01T03:20:04.634Z,24.38
2022-09-01T03:20:36.639Z,24.37
2022-09-01T03:21:08.740Z,24.39
2022-09-01T03:21:41.093Z,24.38
2022-09-01T03:22:12.826Z,24.36
2022-09-01T03:22:45.113Z,24.38
2022-09-01T03:23:18.331Z,24.37
2022-09-01T03:23:51.552Z,24.36
2022-09-01T03:24:23.148Z,24.37
2022-09-01T03:24:54.826Z,24.33
2022-09-01T03:25:26.649Z,24.34
2022-09-01T03:25:58.682Z,24.34
2022-09-01T03:26:30.642Z,24.36
2022-09-01T03:27:02.242Z,24.34
2022-09-01T03:27:33.869Z,24.34
2022-09-01T03:28:05.574Z,24.30
2022-09-01T03:28:37.608Z,24.33
2022-09-01T03:29:09.305Z,24.34
2022-09-01T03:29:40.927Z,24.37
2022-09-01T03:30:12.724Z,24.37
2022-09-01T03:30:45.407Z,24.37
2022-09-01T03:31:17.129Z,24.34
2022-09-01T03:31:48.888Z,24.38
2022-09-01T03:32:21.049Z,24.36
2022-09-01T03:32:52.775Z,24.32
2022-09-01T03:33:25.145Z,24.35
2022-09-01T03:33:56.773Z,24.32
2022-09-01T03:34:28.493Z,24.36
2022-09-01T03:35:00.330Z,24.34
2022-09-01T03:35:32.216Z,24.32
2022-09-01T03:36:04.494Z,24.32
2022-09-01T03:36:36.302Z,24.36
2022-09-01T03:37:08.048Z,24.35
2022-09-01T03:37:39.735Z,24.36
2022-09-01T03:38:11.957Z,24.34
2022-09-01T03:38:44.247Z,24.36
2022-09-01T03:39:17.240Z,24.34
2022-09-01T03:39:48.931Z,24.37
2022-09-01T03:40:22.253Z,24.41
2022-09-01T03:40:55.429Z,24.39
2022-09-01T03:41:27.393Z,24.37
2022-09-01T03:41:59.960Z,24.34
2022-09-01T03:42:32.049Z,24.38
2022-09-01T03:43:04.350Z,24.39
2022-09-01T03:43:37.104Z,24.37
2022-09-01T03:44:17.444Z,24.37
2022-09-01T03:44:49.261Z,24.34
2022-09-01T03:45:21.383Z,24.38
2022-09-01T03:45:53.128Z,24.36
2022-09-01T03:46:25.314Z,24.38
2022-09-01T03:46:57.398Z,24.36
2022-09-01T03:47:29.059Z,24.29
2022-09-01T03:48:00.838Z,24.29
2022-09-01T03:48:32.528Z,24.29
2022-09-01T03:49:04.190Z,24.29
2022-09-01T03:49:35.978Z,24.29
2022-09-01T03:50:08.372Z,24.27
2022-09-01T03:50:40.353Z,24.29
2022-09-01T03:51:11.989Z,24.28
2022-09-01T03:51:43.702Z,24.31
2022-09-01T03:52:15.824Z,24.30
2022-09-01T03:52:50.844Z,24.30
2022-09-01T03:53:23.105Z,24.29
2022-09-01T03:53:55.252Z,24.28
2022-09-01T03:54:27.082Z,24.25
2022-09-01T03:54:58.686Z,24.25
2022-09-01T03:55:31.397Z,24.27
2022-09-01T03:56:03.420Z,24.26
2022-09-01T03:56:35.182Z,24.26
2022-09-01T03:57:06.835Z,24.28
2022-09-01T03:57:38.515Z,24.30
2022-09-01T03:58:10.380Z,24.26
2022-09-01T03:58:43.294Z,24.24
2022-09-01T03:59:15.064Z,24.23
2022-09-01T03:59:46.836Z,24.21
2022-09-01T04:00:18.806Z,24.25
2022-09-01T04:00:52.830Z,24.26
2022-09-01T04:01:28.009Z,24.24
2022-09-01T04:01:59.925Z,24.28
2022-09-01T04:02:31.696Z,24.27
2022-09-01T04:03:04.119Z,24.27
2022-09-01T04:03:36.194Z,24.28
2022-09-01T04:04:08.268Z,24.28
2022-09-01T04:04:39.936Z,24.31
2022-09-01T04:05:11.615Z,24.29
2022-09-01T04:05:44.296Z,24.29
2022-09-01T04:06:16.683Z,24.28
2022-09-01T04:06:48.690Z,24.30
2022-09-01T04:07:20.438Z,24.33
2022-09-01T04:07:52.127Z,24.34
2022-09-01T04:08:23.875Z,24.26
2022-09-01T04:08:55.664Z,24.29
2022-09-01T04:09:27.345Z,24.27
2022-09-01T04:09:59.107Z,24.30
2022-09-01T04:10:31.238Z,24.30
2022-09-01T04:11:04.272Z,24.27
2022-09-01T04:11:36.077Z,24.28
2022-09-01T04:12:08.099Z,24.28
2022-09-01T04:12:40.143Z,24.31
2022-09-01T04:13:12.124Z,24.30
2022-09-01T04:13:47.633Z,24.30
2022-09-01T04:14:19.408Z,24.23
2022-09-01T04:14:51.021Z,24.26
2022-09-01T04:15:23.007Z,24.28
2022-09-01T04:15:54.680Z,24.29
2022-09-01T04:16:29.929Z,24.31
2022-09-01T04:17:01.612Z,24.31
2022-09-01T04:17:33.254Z,24.31
2022-09-01T04:18:05.279Z,24.33
2022-09-01T04:18:37.073Z,24.33
2022-09-01T04:19:09.206Z,24.34
2022-09-01T04:19:40.935Z,24.29
2022-09-01T04:20:12.636Z,24.30
2022-09-01T04:20:44.313Z,24.33
2022-09-01T04:21:16.209Z,24.33
2022-09-01T04:21:48.327Z,24.34
2022-09-01T04:22:20.042Z,24.33
2022-09-01T04:22:51.776Z,24.31
2022-09-01T04:23:27.344Z,24.33
2022-09-01T04:23:59.073Z,24.31
2022-09-01T04:24:32.078Z,24.34
2022-09-01T04:25:05.098Z,24.36
2022-09-01T04:25:37.202Z,24.36
2022-09-01T04:26:10.079Z,24.37
2022-09-01T04:26:42.012Z,24.36
2022-09-01T04:27:14.108Z,24.34
2022-09-01T04:27:45.762Z,24.35
2022-09-01T04:28:18.169Z,24.34
2022-09-01T04:28:50.164Z,24.34
2022-09-01T04:29:22.498Z,24.35
2022-09-01T04:29:57.693Z,24.36
2022-09-01T04:30:29.636Z,24.36
2022-09-01T04:31:02.671Z,24.33
2022-09-01T04:31:34.965Z,24.28
2022-09-01T04:32:07.999Z,24.31
2022-09-01T04:32:40.181Z,24.30
2022-09-01T04:33:12.549Z,24.33
2022-09-01T04:33:44.328Z,24.34
2022-09-01T04:34:16.731Z,24.35
2022-09-01T04:34:48.375Z,24.30
2022-09-01T04:35:20.203Z,24.34
2022-09-01T04:35:51.907Z,24.34
2022-09-01T04:36:26.298Z,24.35
2022-09-01T04:36:57.897Z,24.32
2022-09-01T04:37:29.535Z,24.31
2022-09-01T04:38:01.591Z,24.33
2022-09-01T04:38:33.336Z,24.30
2022-09-01T04:39:05.336Z,24.28
2022-09-01T04:39:37.241Z,24.27
2022-09-01T04:40:09.138Z,24.27
2022-09-01T04:40:40.948Z,24.28
2022-09-01T04:41:12.647Z,24.27
2022-09-01T04:41:44.543Z,24.31
2022-09-01T04:42:16.308Z,24.31
2022-09-01T04:42:48.067Z,24.31
2022-09-01T04:43:19.662Z,24.32
2022-09-01T04:43:51.576Z,24.31
2022-09-01T04:44:24.600Z,24.31
2022-09-01T04:44:56.306Z,24.31
2022-09-01T04:45:27.979Z,24.32
2022-09-01T04:45:59.776Z,24.30
2022-09-01T04:46:32.537Z,24.32
2022-09-01T04:47:04.375Z,24.27
2022-09-01T04:47:37.103Z,24.27
2022-09-01T04:48:09.408Z,24.31
2022-09-01T04:48:41.743Z,24.27
2022-09-01T04:49:13.603Z,24.30
2022-09-01T04:49:48.461Z,24.33
2022-09-01T04:50:20.065Z,24.33
2022-09-01T04:50:51.798Z,24.28
2022-09-01T04:51:24.083Z,24.29
2022-09-01T04:51:56.511Z,24.31
2022-09-01T04:52:28.463Z,24.31
2022-09-01T04:53:00.698Z,24.34
2022-09-01T04:53:32.312Z,24.29
2022-09-01T04:54:04.226Z,24.32
2022-09-01T04:54:37.678Z,24.28
2022-09-01T04:55:10.495Z,24.30
2022-09-01T04:55:42.450Z,24.28
2022-09-01T04:56:18.358Z,24.32
2022-09-01T04:56:50.143Z,24.33
2022-09-01T04:57:22.095Z,24.34
2022-09-01T04:57:54.007Z,24.30
2022-09-01T04:58:26.053Z,24.28
2022-09-01T04:58:57.721Z,24.27
2022-09-01T04:59:29.527Z,24.28
2022-09-01T05:00:01.473Z,24.29
2022-09-01T05:00:33.836Z,24.30
2022-09-01T05:01:13.712Z,24.30
2022-09-01T05:01:45.823Z,24.30
2022-09-01T05:02:17.593Z,24.27
2022-09-01T05:02:51.537Z,24.29
2022-09-01T05:03:24.994Z,24.30
2022-09-01T05:03:56.651Z,24.27
2022-09-01T05:04:29.619Z,24.28
2022-09-01T05:05:01.347Z,24.31
2022-09-01T05:05:36.588Z,24.29
2022-09-01T05:06:13.474Z,24.30
2022-09-01T05:06:46.378Z,24.30
2022-09-01T05:07:18.012Z,24.30
2022-09-01T05:07:49.621Z,24.26
2022-09-01T05:08:23.612Z,24.23
2022-09-01T05:08:56.441Z,24.22
2022-09-01T05:09:28.502Z,24.26
2022-09-01T05:10:01.393Z,24.29
2022-09-01T05:10:33.985Z,24.32
2022-09-01T05:11:06.030Z,24.27
2022-09-01T05:11:38.119Z,24.26
2022-09-01T05:12:10.353Z,24.23
2022-09-01T05:12:44.610Z,24.25
2022-09-01T05:13:16.258Z,24.26
2022-09-01T05:13:48.442Z,24.30
2022-09-01T05:14:20.405Z,24.30
2022-09-01T05:14:52.012Z,24.29
2022-09-01T05:15:23.569Z,24.28
2022-09-01T05:16:02.141Z,24.30
2022-09-01T05:16:34.593Z,24.33
2022-09-01T05:17:06.617Z,24.28
2022-09-01T05:17:38.194Z,24.29
2022-09-01T05:18:09.810Z,24.29
2022-09-01T05:18:44.536Z,24.30
2022-09-01T05:19:16.206Z,24.31
2022-09-01T05:19:48.295Z,24.31
2022-09-01T05:20:19.987Z,24.31
2022-09-01T05:20:51.633Z,24.32
2022-09-01T05:21:23.983Z,24.32
2022-09-01T05:21:55.921Z,24.30
2022-09-01T05:22:27.922Z,24.31
2022-09-01T05:22:59.762Z,24.36
2022-09-01T05:23:31.770Z,24.31
2022-09-01T05:24:03.855Z,24.31
2022-09-01T05:24:39.759Z,24.31
2022-09-01T05:25:12.984Z,24.35
2022-09-01T05:25:44.936Z,24.34
2022-09-01T05:26:17.886Z,24.32
2022-09-01T05:26:49.493Z,24.36
2022-09-01T05:27:21.099Z,24.34
2022-09-01T05:27:52.702Z,24.32
2022-09-01T05:28:24.319Z,24.33
2022-09-01T05:28:56.904Z,24.34
2022-09-01T05:29:28.671Z,24.32
2022-09-01T05:30:00.264Z,24.32
2022-09-01T05:30:33.285Z,24.34
2022-09-01T05:31:05.016Z,24.32
2022-09-01T05:31:36.722Z,24.29
2022-09-01T05:32:08.297Z,24.33
2022-09-01T05:32:40.233Z,24.29
2022-09-01T05:33:13.836Z,24.29
2022-09-01T05:33:46.042Z,24.30
2022-09-01T05:34:17.786Z,24.29
2022-09-01T05:34:49.776Z,24.28
2022-09-01T05:35:21.710Z,24.30
2022-09-01T05:35:59.561Z,24.30
2022-09-01T05:36:31.201Z,24.28
2022-09-01T05:37:03.126Z,24.30
2022-09-01T05:37:37.755Z,24.29
2022-09-01T05:38:09.758Z,24.28
2022-09-01T05:38:41.995Z,24.33
2022-09-01T05:39:13.896Z,24.30
2022-09-01T05:39:45.874Z,24.29
2022-09-01T05:40:17.578Z,24.29
2022-09-01T05:40:55.891Z,24.34
2022-09-01T05:41:27.567Z,24.31
2022-09-01T05:41:59.426Z,24.31
2022-09-01T05:42:31.442Z,24.31
2022-09-01T05:43:03.075Z,24.30
2022-09-01T05:43:34.662Z,24.31
2022-09-01T05:44:06.954Z,24.32
2022-09-01T05:44:39.497Z,24.33
2022-09-01T05:45:11.510Z,24.35
2022-09-01T05:46:05.148Z,24.31
2022-09-01T05:46:35.360Z,24.31
2022-09-01T05:47:07.203Z,24.35
2022-09-01T05:47:39.257Z,24.36
2022-09-01T05:48:13.492Z,24.37
2022-09-01T05:48:45.335Z,24.33
2022-09-01T05:49:17.314Z,24.32
2022-09-01T05:49:49.233Z,24.31
2022-09-01T05:50:20.882Z,24.31
2022-09-01T05:50:52.545Z,24.32
2022-09-01T05:51:43.353Z,24.32
2022-09-01T05:52:15.340Z,24.37
2022-09-01T05:52:47.132Z,24.37
2022-09-01T05:53:20.149Z,24.31
2022-09-01T05:53:53.724Z,24.30
2022-09-01T05:54:25.803Z,24.35
2022-09-01T05:54:58.034Z,24.36
2022-09-01T05:55:29.644Z,24.30
2022-09-01T05:56:01.370Z,24.30
2022-09-01T05:56:32.955Z,24.30
2022-09-01T05:57:30.238Z,24.30
2022-09-01T05:57:56.253Z,24.28
2022-09-01T05:59:22.349Z,24.28
2022-09-01T05:59:24.061Z,24.29
2022-09-01T05:59:57.068Z,24.31
2022-09-01T06:00:28.691Z,24.34
2022-09-01T06:01:00.689Z,24.31
2022-09-01T06:01:32.368Z,24.28
2022-09-01T06:02:04.136Z,24.30
2022-09-01T06:02:35.927Z,24.30
2022-09-01T06:03:08.141Z,24.29
2022-09-01T06:03:39.836Z,24.32
2022-09-01T06:04:11.409Z,24.31
2022-09-01T06:04:43.000Z,24.31
2022-09-01T06:05:14.568Z,24.28
2022-09-01T06:05:46.797Z,24.32
2022-09-01T06:06:18.366Z,24.31
2022-09-01T06:07:07.002Z,24.30
2022-09-01T06:07:39.668Z,24.27
2022-09-01T06:08:11.381Z,24.29
2022-09-01T06:08:46.801Z,24.27
2022-09-01T06:09:18.583Z,24.28
2022-09-01T06:09:50.775Z,24.28
2022-09-01T06:10:23.117Z,24.27
2022-09-01T06:10:55.093Z,24.26
2022-09-01T06:11:26.851Z,24.29
2022-09-01T06:11:58.915Z,24.28
2022-09-01T06:12:31.348Z,24.31
2022-09-01T06:13:03.365Z,24.32
2022-09-01T06:13:35.384Z,24.34
2022-09-01T06:14:07.031Z,24.30
2022-09-01T06:14:38.810Z,24.30
2022-09-01T06:15:10.497Z,24.30
2022-09-01T06:15:42.142Z,24.30
2022-09-01T06:16:15.019Z,24.30
2022-09-01T06:16:46.706Z,24.27
2022-09-01T06:17:19.255Z,24.26
2022-09-01T06:17:51.219Z,24.26
2022-09-01T06:18:23.094Z,24.26
2022-09-01T06:18:55.452Z,24.25
2022-09-01T06:19:28.408Z,24.23
2022-09-01T06:20:00.470Z,24.23
2022-09-01T06:20:32.023Z,24.25
2022-09-01T06:21:04.030Z,24.24
2022-09-01T06:21:36.021Z,24.22
2022-09-01T06:22:08.741Z,24.22
2022-09-01T06:22:40.306Z,24.23
2022-09-01T06:23:12.232Z,24.25
2022-09-01T06:23:44.293Z,24.27
2022-09-01T06:24:15.906Z,24.29
2022-09-01T06:24:52.719Z,24.29
2022-09-01T06:25:27.204Z,24.21
2022-09-01T06:25:58.831Z,24.21
2022-09-01T06:26:32.210Z,24.17
2022-09-01T06:27:04.083Z,24.23
2022-09-01T06:27:36.003Z,24.28
2022-09-01T06:28:07.619Z,24.29
2022-09-01T06:28:39.714Z,24.31
2022-09-01T06:29:11.375Z,24.28
2022-09-01T06:29:42.983Z,24.30
2022-09-01T06:30:15.529Z,24.30
2022-09-01T06:30:48.385Z,24.27
2022-09-01T06:31:20.577Z,24.28
2022-09-01T06:31:52.372Z,24.27
2022-09-01T06:32:24.022Z,24.22
2022-09-01T06:32:55.648Z,24.21
2022-09-01T06:33:27.254Z,24.21
2022-09-01T06:33:59.026Z,24.20
2022-09-01T06:34:30.634Z,24.20
2022-09-01T06:35:02.238Z,24.17
2022-09-01T06:35:37.256Z,24.16
2022-09-01T06:36:08.844Z,24.19
2022-09-01T06:36:40.413Z,24.15
2022-09-01T06:37:12.066Z,24.14
2022-09-01T06:37:43.814Z,24.17
2022-09-01T06:38:15.592Z,24.19
2022-09-01T06:38:47.587Z,24.17
2022-09-01T06:39:19.187Z,24.20
2022-09-01T06:39:50.940Z,24.17
2022-09-01T06:40:22.937Z,24.22
2022-09-01T06:41:01.898Z,24.21
2022-09-01T06:41:33.974Z,24.22
2022-09-01T06:42:06.355Z,24.25
2022-09-01T06:42:38.154Z,24.24
2022-09-01T06:43:10.051Z,24.25
2022-09-01T06:43:41.641Z,24.28
2022-09-01T06:44:14.651Z,24.28
2022-09-01T06:44:46.737Z,24.28
2022-09-01T06:45:19.732Z,24.28
2022-09-01T06:45:52.980Z,24.27
2022-09-01T06:46:25.485Z,24.28
2022-09-01T06:46:57.191Z,24.27
2022-09-01T06:47:29.064Z,24.28
2022-09-01T06:48:00.890Z,24.28
2022-09-01T06:48:32.579Z,24.31
2022-09-01T06:49:04.684Z,24.30
2022-09-01T06:49:37.206Z,24.30
2022-09-01T06:50:08.963Z,24.28
2022-09-01T06:51:32.551Z,24.29
2022-09-01T06:52:04.373Z,24.27
2022-09-01T06:53:35.613Z,24.27
2022-09-01T06:54:11.298Z,24.29
2022-09-01T06:54:46.483Z,24.29
2022-09-01T06:55:18.202Z,24.28
2022-09-01T06:55:50.132Z,24.29
2022-09-01T06:56:22.068Z,24.29
2022-09-01T06:56:53.870Z,24.29
2022-09-01T06:58:17.746Z,24.26
2022-09-01T06:58:53.802Z,24.29
2022-09-01T06:59:31.301Z,24.31
2022-09-01T07:00:07.193Z,24.29
2022-09-01T07:00:39.137Z,24.31
2022-09-01T07:01:10.852Z,24.36
2022-09-01T07:01:43.476Z,24.32
2022-09-01T07:02:17.821Z,24.31
2022-09-01T07:02:53.469Z,24.30
2022-09-01T07:03:25.503Z,24.30